Airfield :
LOGIN :

Register | Disclaimer

   EN    FR    IT 

 










Legend :    VFR   Marginal VFR   IFR   Intensive IFR   Very Intensive IFR
Visi :
Ceiling :
>= 8 km
>= 3000ft
5 to 8 km
1000 to 3000 ft
1500m to 5 km
500 to 1000 ft
800 to 1500m
200 to 500 ft
< 800m
< 200 ft
Symbols :   Thunderstorms  Fog  Heavy snow  Heavy precipitations  Wind > 20 kt
SIGMETs :     Misc.  Thunderstorms  Icing  Turbulence  Mountain Waves  Volcanic Ashes






- Airport Elevation : 306 ft
- IATA code : EMA


EGNX - Nottingham East Midlands

CURRENT METAR :
  • 180650Z 21009KT 9999 FEW006 08/07 Q0996

EXPIRED METARs :
  • 180620Z 21008KT 9999 FEW006 08/08 Q0995
  • 180550Z 22008KT 9999 FEW007 SCT015 08/08 Q0995
  • 180520Z 21009KT 9999 SCT006 09/08 Q0995
  • 180450Z 21009KT 9999 SCT007 09/08 Q0995
  • 180420Z 20011KT 170V270 9999 -RA SCT008 BKN019 09/08 Q0995
  • 180350Z 18012KT 9999 SCT012 10/08 Q0995

TAF TAF EGNX
Valid from the 18 at 06:00 until the 19 at 06:00 UTC


180500Z 1806/1906 15008KT 9999 FEW035
TEMPO 1806/1808 6000 SHRA BKN010
TEMPO 1811/1821 6000 SHRA
PROB30
TEMPO 1811/1819 21015G25KT 3000 +SHRA BKN010 BKN020CB
PROB30
TEMPO 1821/1906 6000 BKN006
ATIS : +44 1332 852 852 (ext 3201)



MET'MAP, your aeronautical weather chart ! - Copyright ORBIFLY December 2007 - Disclaimer

ORBIFLY MET'MAP TEAM :

Programming & Development : Alexandra Zaïnal
Concept & Development : Baudouin d'Aumeries
Co-Development & Prog : Marc-Olivier Méhu
Technical & hardware support : Manuel Goepfert

Contact : metmap@orbifly.com




SOURCES & CREDITS :

   NOAA